• Join FlightAware (Why Join?)
  • Login
  • US Flag 
07:30PM EDT


 

Airport Tracker/Info


-or-


 

Live Flight TrackerFlight Track Log ✈ JBU1329 ✈ 15-Jun-2013 ✈ KBOS - KBWI

Flight Track Log - Related Links

Times and Time Zones

All times are in EDT time to prevent confusion due to time zone crossing. See the JBU1329 flight status page for this flight to view local times or setup timezone preferences in your user account.

Time Position Orientation Groundspeed Altitude Reporting Facility
EDT Latitude Longitude Course Direction KTS MPH feet Rate Location/Type
09:27AM 42.3167 -71.0667 258° West 216 249 2,400  Level KA90
09:28AM 42.2667 -71.1500 231° Southwest 267 307 5,700 2,760 Climbing KA90
09:29AM 42.2504 -70.7911 228° Southwest  Level FlightAware Approximate
09:29AM 42.2519 -71.2089 251° West 270 311 7,500  Level Boston Center
09:30AM 42.1898 -70.9183 240° Southwest  Level FlightAware Approximate
09:30AM 42.2197 -71.3131 247° West 274 315 11,400  Level Boston Center
09:31AM 42.1734 -71.0667 262° West  Level FlightAware Approximate
09:31AM 42.1853 -71.4092 244° Southwest 304 350 13,600  Level Boston Center
09:32AM 42.1540 -71.2161 258° West  Level FlightAware Approximate
09:32AM 42.1511 -71.5664 254° West 333 383 16,500  Level Boston Center
09:33AM 42.1292 -71.6983 257° West 357 411 18,900 2,400 Climbing Boston Center
09:34AM 42.1050 -71.8217 255° West 373 429 21,300 2,100 Climbing Boston Center
09:35AM 42.0783 -71.9644 256° West 379 436 23,100 1,500 Climbing Boston Center
09:36AM 42.0519 -72.1075 256° West 390 449 24,700 1,500 Climbing Boston Center
09:37AM 42.0169 -72.2864 255° West 404 465 26,400 1,500 Climbing Boston Center
09:38AM 41.9856 -72.4372 254° West 418 481 27,700 1,800 Climbing Boston Center
09:39AM 41.9128 -72.5767 235° Southwest 430 495 30,000 1,920 Climbing Boston Center
09:40AM 41.8311 -72.7103 231° Southwest 430 495 31,600 960 Climbing Boston Center
09:41AM 41.7472 -72.8464 230° Southwest 447 514 32,000 180 Climbing Boston Center
09:42AM 41.6614 -72.9819 230° Southwest 471 542 32,000  Level Boston Center
09:43AM 41.5603 -73.1419 230° Southwest 476 548 32,000  Level Boston Center
09:44AM 41.4889 -73.2603 231° Southwest 471 542 32,000  Level Boston Center
09:47AM 41.2953 -73.5603 229° Southwest 469 540 32,000  Level New York Center
09:48AM 41.2128 -73.7003 232° Southwest 469 540 32,000  Level New York Center
09:49AM 41.1322 -73.8400 233° Southwest 479 551 32,000  Level New York Center
09:50AM 41.0472 -73.9792 231° Southwest 489 563 32,000 -180 Level New York Center
09:51AM 40.9664 -74.1153 232° Southwest 489 563 31,700 -1,020 Descending New York Center
09:52AM 40.8878 -74.2350 229° Southwest 484 557 30,000 -1,800 Descending New York Center
09:53AM 40.8067 -74.3761 233° Southwest 484 557 28,100 -1,020 Descending New York Center
09:54AM 40.7256 -74.5061 231° Southwest 479 551 28,000 -60 Descending New York Center
09:55AM 40.6417 -74.6464 232° Southwest 479 551 28,000 -180 Level New York Center
09:56AM 40.5542 -74.7725 228° Southwest 479 551 27,700 -1,680 Descending New York Center
09:57AM 40.4686 -74.8986 228° Southwest 473 544 24,700 -2,940 Descending New York Center
09:58AM 40.3872 -75.0192 228° Southwest 459 528 21,800 -2,880 Descending New York Center
09:59AM 40.2994 -75.1417 227° Southwest 441 507 19,000 -1,920 Descending New York Center
10:00AM 40.2311 -75.2350 226° Southwest 413 475 18,000 -540 Descending New York Center
10:01AM 40.1453 -75.3572 227° Southwest 413 475 18,000  Level New York Center
10:02AM 40.0747 -75.4531 226° Southwest 413 475 18,000  Level New York Center
10:03AM 39.9908 -75.5692 227° Southwest 407 468 18,000  Level New York Center
10:04AM 39.9222 -75.6675 228° Southwest 407 468 18,000 -420 Level New York Center
10:05AM 39.8522 -75.7978 235° Southwest 407 468 17,200 -900 Descending New York Center
10:06AM 39.7997 -75.8994 236° Southwest 389 448 16,300 -1,680 Descending New York Center
10:08AM 39.6667 -76.1500 235° Southwest 360 414 12,000 -1,560 Descending Potomac TRACON
10:09AM 39.6000 -76.2333 224° Southwest 348 400 11,600 -900 Descending Potomac TRACON
10:10AM 39.5167 -76.3000 212° Southwest 307 353 10,200 -1,920 Descending Potomac TRACON
10:11AM 39.4500 -76.3667 218° Southwest 290 334 7,800 -2,340 Descending Potomac TRACON
10:12AM 39.4000 -76.4333 226° Southwest 280 322 5,500 -1,440 Descending Potomac TRACON
10:13AM 39.3333 -76.5000 218° Southwest 268 308 5,000 -300 Descending Potomac TRACON
10:14AM 39.2833 -76.5333 207° Southwest 255 293 5,000 -360 Level Potomac TRACON
10:15AM 39.2333 -76.5000 153° Southeast 243 280 4,300 -1,080 Descending Potomac TRACON
10:16AM 39.1667 -76.4667 159° South 228 262 3,000 -720 Descending Potomac TRACON
10:17AM 39.1167 -76.4833 195° South 226 260 3,000  Level Potomac TRACON